Wetterdaten: Woche 16.05.05 - 22.05.05 (KW20)
Datum Zeit Temperatur Luftfeuchte Luftdruck Niederschlag Wind Richtung Sonne Solar Taupunkt Windchill
16.05.2005 00:00 8.8 C 96 % 1015.2 hPa 0.0 l/m 0.8 km/h (0 Bft) O-SO 0.00 h 0 W/m 8.2 C 8.8 C
16.05.2005 01:00 7.8 C 99 % 1014.7 hPa 0.0 l/m 0.3 km/h (0 Bft) O-SO 0.00 h 0 W/m 7.7 C 7.8 C
16.05.2005 02:00 7.8 C 100 % 1014.5 hPa 0.0 l/m 0.2 km/h (0 Bft) O-SO 0.00 h 0 W/m 7.8 C 7.8 C
16.05.2005 03:00 7.1 C 100 % 1014.4 hPa 0.0 l/m 0.4 km/h (0 Bft) O-SO 0.00 h 0 W/m 7.1 C 7.1 C
16.05.2005 04:00 6.7 C 100 % 1014.5 hPa 0.0 l/m 0.0 km/h (0 Bft) N 0.00 h 0 W/m 6.7 C 6.7 C
16.05.2005 05:00 6.9 C 100 % 1014.5 hPa 0.0 l/m 0.0 km/h (0 Bft) N 0.00 h 4 W/m 6.9 C 6.9 C
16.05.2005 06:00 7.4 C 100 % 1014.4 hPa 0.0 l/m 0.0 km/h (0 Bft) N 0.00 h 24 W/m 7.3 C 7.4 C
16.05.2005 07:00 8.7 C 93 % 1014.2 hPa 0.0 l/m 0.0 km/h (0 Bft) N 0.00 h 87 W/m 7.7 C 8.7 C
16.05.2005 08:00 10.1 C 87 % 1013.3 hPa 0.0 l/m 1.0 km/h (0 Bft) W 0.77 h 239 W/m 7.9 C 10.0 C
16.05.2005 09:00 11.5 C 81 % 1012.8 hPa 0.0 l/m 0.5 km/h (0 Bft) W 0.00 h 173 W/m 8.3 C 11.5 C
16.05.2005 10:00 13.1 C 76 % 1012.6 hPa 0.0 l/m 0.3 km/h (0 Bft) N-NW 0.42 h 384 W/m 8.9 C 13.1 C
16.05.2005 11:00 14.5 C 69 % 1011.9 hPa 0.0 l/m 1.2 km/h (1 Bft) W-NW 0.30 h 380 W/m 8.9 C 14.5 C
16.05.2005 12:00 15.2 C 67 % 1011.3 hPa 0.0 l/m 1.4 km/h (1 Bft) W-NW 0.07 h 332 W/m 9.0 C 15.2 C
16.05.2005 13:00 15.0 C 70 % 1011.3 hPa 0.0 l/m 1.7 km/h (1 Bft) W-NW 0.00 h 163 W/m 9.5 C 15.0 C
16.05.2005 14:00 13.5 C 85 % 1010.5 hPa 0.3 l/m 9.3 km/h (2 Bft) W-NW 0.00 h 145 W/m 11.0 C 13.5 C
16.05.2005 15:00 12.0 C 94 % 1011.1 hPa 3.3 l/m 5.2 km/h (1 Bft) NW 0.00 h 63 W/m 11.0 C 12.0 C
16.05.2005 16:00 11.2 C 98 % 1011.8 hPa 4.6 l/m 4.2 km/h (1 Bft) SO 0.00 h 53 W/m 10.9 C 11.2 C
16.05.2005 17:00 11.0 C 97 % 1012.7 hPa 2.3 l/m 3.9 km/h (1 Bft) W-NW 0.00 h 52 W/m 10.5 C 11.0 C
16.05.2005 18:00 10.5 C 97 % 1012.9 hPa 2.3 l/m 8.9 km/h (2 Bft) NW 0.00 h 40 W/m 10.0 C 10.5 C
16.05.2005 19:00 9.9 C 97 % 1013.6 hPa 1.0 l/m 3.8 km/h (1 Bft) NO 0.00 h 32 W/m 9.5 C 9.7 C
16.05.2005 20:00 9.9 C 100 % 1014.0 hPa 0.0 l/m 0.5 km/h (0 Bft) N 0.00 h 10 W/m 9.9 C 9.9 C
16.05.2005 21:00 9.5 C 100 % 1014.1 hPa 0.3 l/m 0.2 km/h (0 Bft) O 0.00 h 0 W/m 9.5 C 9.5 C
16.05.2005 22:00 9.2 C 100 % 1014.2 hPa 0.0 l/m 3.7 km/h (1 Bft) SO 0.00 h 0 W/m 9.2 C 8.8 C
16.05.2005 23:00 8.4 C 100 % 1014.3 hPa 0.0 l/m 2.3 km/h (1 Bft) SO 0.00 h 0 W/m 8.4 C 8.3 C
17.05.2005 00:00 7.9 C 100 % 1014.3 hPa 0.0 l/m 2.1 km/h (1 Bft) O-SO 0.00 h 0 W/m 7.9 C 7.8 C
17.05.2005 01:00 6.8 C 100 % 1014.5 hPa 0.0 l/m 4.5 km/h (1 Bft) O-SO 0.00 h 0 W/m 6.8 C 6.2 C
17.05.2005 02:00 6.5 C 100 % 1013.8 hPa 0.0 l/m 3.6 km/h (1 Bft) O-SO 0.00 h 0 W/m 6.5 C 5.9 C
17.05.2005 03:00 6.7 C 100 % 1013.5 hPa 0.0 l/m 4.9 km/h (1 Bft) O-SO 0.00 h 0 W/m 6.7 C 6.1 C
17.05.2005 04:00 7.3 C 100 % 1013.4 hPa 0.0 l/m 1.2 km/h (1 Bft) O-SO 0.00 h 0 W/m 7.3 C 7.3 C
17.05.2005 05:00 7.3 C 100 % 1013.4 hPa 0.0 l/m 1.4 km/h (1 Bft) O-SO 0.00 h 4 W/m 7.3 C 7.3 C
17.05.2005 06:00 7.5 C 100 % 1013.4 hPa 0.0 l/m 1.0 km/h (0 Bft) O-SO 0.00 h 15 W/m 7.5 C 7.5 C
17.05.2005 07:00 7.7 C 100 % 1013.3 hPa 0.0 l/m 0.2 km/h (0 Bft) N 0.00 h 45 W/m 7.7 C 7.7 C
17.05.2005 08:00 8.0 C 99 % 1013.9 hPa 0.0 l/m 1.2 km/h (1 Bft) O-SO 0.00 h 127 W/m 7.9 C 8.0 C
17.05.2005 09:00 8.6 C 97 % 1014.2 hPa 0.0 l/m 0.3 km/h (0 Bft) O-SO 0.00 h 172 W/m 8.1 C 8.6 C
17.05.2005 10:00 10.2 C 90 % 1014.0 hPa 0.0 l/m 1.8 km/h (1 Bft) O 0.33 h 346 W/m 8.5 C 10.2 C
17.05.2005 11:00 12.1 C 83 % 1013.6 hPa 0.0 l/m 8.0 km/h (2 Bft) O-SO 0.93 h 705 W/m 9.4 C 12.1 C
17.05.2005 12:00 14.0 C 77 % 1012.5 hPa 0.0 l/m 4.6 km/h (1 Bft) O-SO 0.90 h 806 W/m 10.0 C 14.0 C
17.05.2005 13:00 16.4 C 68 % 1012.2 hPa 0.0 l/m 7.7 km/h (2 Bft) O-SO 1.00 h 888 W/m 10.4 C 16.4 C
17.05.2005 14:00 17.8 C 59 % 1011.2 hPa 0.0 l/m 4.9 km/h (1 Bft) O-SO 1.00 h 858 W/m 9.6 C 17.8 C
17.05.2005 15:00 19.2 C 47 % 1010.3 hPa 0.0 l/m 4.9 km/h (1 Bft) O-SO 1.00 h 749 W/m 7.5 C 19.2 C
17.05.2005 16:00 20.2 C 42 % 1009.1 hPa 0.0 l/m 3.7 km/h (1 Bft) N-NW 1.00 h 680 W/m 6.9 C 20.2 C
17.05.2005 17:00 20.4 C 41 % 1009.2 hPa 0.0 l/m 3.4 km/h (1 Bft) NW 1.00 h 541 W/m 6.8 C 20.4 C
17.05.2005 18:00 19.9 C 44 % 1009.6 hPa 0.0 l/m 5.3 km/h (1 Bft) N-NO 0.57 h 317 W/m 7.2 C 19.9 C
17.05.2005 19:00 18.0 C 52 % 1009.9 hPa 0.0 l/m 2.1 km/h (1 Bft) N 0.40 h 140 W/m 7.8 C 18.0 C
17.05.2005 20:00 15.9 C 59 % 1010.3 hPa 0.0 l/m 2.5 km/h (1 Bft) N-NO 0.72 h 44 W/m 8.0 C 15.9 C
17.05.2005 21:00 14.2 C 66 % 1011.4 hPa 0.0 l/m 5.2 km/h (1 Bft) N-NO 0.00 h 0 W/m 8.0 C 14.2 C
17.05.2005 22:00 13.6 C 69 % 1011.5 hPa 0.0 l/m 1.8 km/h (1 Bft) N-NO 0.00 h 0 W/m 7.9 C 13.6 C
17.05.2005 23:00 12.8 C 73 % 1012.5 hPa 0.0 l/m 3.0 km/h (1 Bft) NO 0.00 h 0 W/m 8.1 C 12.8 C
18.05.2005 00:00 12.5 C 75 % 1012.6 hPa 0.0 l/m 2.5 km/h (1 Bft) NO 0.00 h 0 W/m 8.2 C 12.5 C
18.05.2005 01:00 12.0 C 77 % 1012.2 hPa 0.0 l/m 1.5 km/h (1 Bft) NO 0.00 h 0 W/m 8.2 C 12.0 C
18.05.2005 02:00 12.0 C 77 % 1011.7 hPa 0.0 l/m 0.9 km/h (0 Bft) N-NO 0.00 h 0 W/m 8.2 C 12.0 C
18.05.2005 03:00 12.0 C 77 % 1011.8 hPa 0.0 l/m 0.0 km/h (0 Bft) N 0.00 h 0 W/m 8.1 C 12.0 C
18.05.2005 04:00 11.7 C 81 % 1011.9 hPa 0.0 l/m 0.4 km/h (0 Bft) N 0.00 h 0 W/m 8.6 C 11.7 C
18.05.2005 05:00 10.9 C 89 % 1012.9 hPa 0.0 l/m 0.6 km/h (0 Bft) N-NW 0.00 h 1 W/m 9.1 C 10.9 C
18.05.2005 06:00 10.1 C 88 % 1013.9 hPa 0.0 l/m 0.2 km/h (0 Bft) N-NW 0.00 h 4 W/m 8.2 C 10.1 C
18.05.2005 07:00 9.7 C 89 % 1014.1 hPa 0.0 l/m 0.5 km/h (0 Bft) W-NW 0.00 h 18 W/m 7.9 C 9.7 C
18.05.2005 08:00 9.4 C 89 % 1015.2 hPa 0.0 l/m 1.7 km/h (1 Bft) NW 0.00 h 37 W/m 7.6 C 9.2 C
18.05.2005 09:00 9.3 C 88 % 1016.3 hPa 0.0 l/m 1.1 km/h (0 Bft) W-NW 0.00 h 110 W/m 7.4 C 9.2 C
18.05.2005 10:00 10.6 C 79 % 1017.1 hPa 0.0 l/m 2.6 km/h (1 Bft) NW 0.97 h 498 W/m 7.2 C 10.5 C
18.05.2005 11:00 11.6 C 76 % 1017.6 hPa 0.0 l/m 2.1 km/h (1 Bft) N-NW 0.30 h 338 W/m 7.6 C 11.6 C
18.05.2005 12:00 11.5 C 76 % 1018.0 hPa 0.0 l/m 3.1 km/h (1 Bft) NW 0.60 h 419 W/m 7.4 C 11.5 C
18.05.2005 13:00 12.3 C 71 % 1018.6 hPa 0.0 l/m 6.6 km/h (2 Bft) NW 0.97 h 574 W/m 7.2 C 12.3 C
18.05.2005 14:00 12.1 C 71 % 1019.0 hPa 0.0 l/m 6.6 km/h (2 Bft) NW 0.30 h 370 W/m 7.1 C 12.1 C
18.05.2005 15:00 11.6 C 73 % 1019.8 hPa 0.0 l/m 7.8 km/h (2 Bft) NW 0.00 h 314 W/m 6.9 C 11.6 C
18.05.2005 16:00 11.9 C 72 % 1020.0 hPa 0.0 l/m 3.0 km/h (1 Bft) NW 0.00 h 289 W/m 7.0 C 11.9 C
18.05.2005 17:00 11.7 C 72 % 1020.5 hPa 0.0 l/m 3.6 km/h (1 Bft) NW 0.00 h 147 W/m 6.8 C 11.7 C
18.05.2005 18:00 11.1 C 76 % 1021.2 hPa 0.0 l/m 2.2 km/h (1 Bft) W-NW 0.00 h 60 W/m 7.0 C 11.1 C
18.05.2005 19:00 10.9 C 79 % 1022.0 hPa 0.0 l/m 0.5 km/h (0 Bft) W-NW 0.00 h 16 W/m 7.4 C 10.9 C
18.05.2005 20:00 10.6 C 83 % 1022.6 hPa 0.0 l/m 0.0 km/h (0 Bft) N 0.00 h 4 W/m 7.9 C 10.6 C
18.05.2005 21:00 10.3 C 85 % 1023.4 hPa 0.0 l/m 0.0 km/h (0 Bft) N 0.00 h 0 W/m 7.9 C 10.3 C
18.05.2005 22:00 9.9 C 85 % 1024.4 hPa 0.0 l/m 0.4 km/h (0 Bft) W-NW 0.00 h 0 W/m 7.6 C 9.9 C
18.05.2005 23:00 9.5 C 85 % 1024.5 hPa 0.0 l/m 0.0 km/h (0 Bft) N 0.00 h 0 W/m 7.0 C 9.5 C
19.05.2005 00:00 9.1 C 87 % 1024.6 hPa 0.0 l/m 0.0 km/h (0 Bft) N 0.00 h 0 W/m 7.0 C 9.1 C
19.05.2005 01:00 7.3 C 93 % 1024.7 hPa 0.0 l/m 0.1 km/h (0 Bft) N 0.00 h 0 W/m 6.3 C 7.3 C
19.05.2005 02:00 5.8 C 98 % 1024.9 hPa 0.0 l/m 0.1 km/h (0 Bft) SO 0.00 h 0 W/m 5.5 C 5.8 C
19.05.2005 03:00 5.0 C 100 % 1025.1 hPa 0.0 l/m 0.3 km/h (0 Bft) SO 0.00 h 0 W/m 5.0 C 5.0 C
19.05.2005 04:00 4.0 C 100 % 1024.7 hPa 0.0 l/m 0.0 km/h (0 Bft) N 0.00 h 0 W/m 4.0 C 4.0 C
19.05.2005 05:00 4.2 C 100 % 1024.2 hPa 0.0 l/m 0.1 km/h (0 Bft) N 0.03 h 10 W/m 4.2 C 4.2 C
19.05.2005 06:00 4.3 C 100 % 1024.9 hPa 0.0 l/m 0.0 km/h (0 Bft) N 0.13 h 51 W/m 4.3 C 4.3 C
19.05.2005 07:00 5.8 C 99 % 1025.0 hPa 0.0 l/m 0.0 km/h (0 Bft) N 0.87 h 178 W/m 5.7 C 5.8 C
19.05.2005 08:00 7.3 C 93 % 1024.8 hPa 0.0 l/m 0.6 km/h (0 Bft) NW 0.00 h 166 W/m 6.3 C 7.3 C
19.05.2005 09:00 9.2 C 83 % 1024.6 hPa 0.0 l/m 2.4 km/h (1 Bft) W-NW 1.00 h 451 W/m 6.5 C 9.0 C
19.05.2005 10:00 12.2 C 71 % 1024.1 hPa 0.0 l/m 4.4 km/h (1 Bft) NW 0.92 h 613 W/m 7.0 C 12.2 C
19.05.2005 11:00 13.6 C 66 % 1023.9 hPa 0.0 l/m 5.1 km/h (1 Bft) O-SO 0.83 h 633 W/m 7.3 C 13.6 C
19.05.2005 12:00 15.6 C 56 % 1023.7 hPa 0.0 l/m 8.1 km/h (2 Bft) O-SO 1.00 h 862 W/m 6.9 C 15.6 C
19.05.2005 13:00 16.6 C 52 % 1023.2 hPa 0.0 l/m 6.1 km/h (2 Bft) O-SO 0.97 h 853 W/m 6.8 C 16.6 C
19.05.2005 14:00 18.0 C 46 % 1022.3 hPa 0.0 l/m 5.4 km/h (1 Bft) O-SO 1.00 h 860 W/m 6.2 C 18.0 C
19.05.2005 15:00 19.0 C 43 % 1021.8 hPa 0.0 l/m 7.1 km/h (2 Bft) O-SO 1.00 h 749 W/m 6.0 C 19.0 C
19.05.2005 16:00 19.7 C 40 % 1021.1 hPa 0.0 l/m 3.9 km/h (1 Bft) O-SO 1.00 h 669 W/m 5.7 C 19.7 C
19.05.2005 17:00 19.9 C 39 % 1021.1 hPa 0.0 l/m 1.9 km/h (1 Bft) S 1.00 h 435 W/m 5.6 C 19.9 C
19.05.2005 18:00 20.0 C 40 % 1021.0 hPa 0.0 l/m 4.6 km/h (1 Bft) O-SO 1.00 h 389 W/m 6.0 C 20.0 C
19.05.2005 19:00 18.5 C 42 % 1021.2 hPa 0.0 l/m 2.4 km/h (1 Bft) O-SO 1.00 h 204 W/m 5.4 C 18.5 C
19.05.2005 20:00 16.0 C 53 % 1021.6 hPa 0.0 l/m 2.1 km/h (1 Bft) O-SO 0.87 h 62 W/m 6.2 C 16.0 C
19.05.2005 21:00 12.3 C 72 % 1022.0 hPa 0.0 l/m 4.3 km/h (1 Bft) O-SO 0.00 h 0 W/m 7.2 C 12.3 C
19.05.2005 22:00 10.3 C 81 % 1022.3 hPa 0.0 l/m 0.1 km/h (0 Bft) O-SO 0.00 h 0 W/m 7.2 C 10.3 C
19.05.2005 23:00 8.7 C 90 % 1022.8 hPa 0.0 l/m 1.2 km/h (1 Bft) O-SO 0.00 h 0 W/m 7.1 C 8.6 C
20.05.2005 00:00 8.0 C 94 % 1023.6 hPa 0.0 l/m 0.1 km/h (0 Bft) O-SO 0.00 h 0 W/m 7.1 C 8.0 C
20.05.2005 01:00 7.2 C 97 % 1023.8 hPa 0.0 l/m 1.0 km/h (0 Bft) O-SO 0.00 h 0 W/m 6.7 C 7.1 C
20.05.2005 02:00 6.8 C 100 % 1023.1 hPa 0.0 l/m 1.7 km/h (1 Bft) O-SO 0.00 h 0 W/m 6.7 C 6.6 C
20.05.2005 03:00 6.1 C 100 % 1023.1 hPa 0.0 l/m 1.0 km/h (0 Bft) O-SO 0.00 h 0 W/m 6.0 C 6.0 C
20.05.2005 04:00 5.6 C 100 % 1023.0 hPa 0.0 l/m 0.0 km/h (0 Bft) N 0.00 h 0 W/m 5.6 C 5.6 C
20.05.2005 05:00 5.1 C 100 % 1023.4 hPa 0.0 l/m 0.0 km/h (0 Bft) N 0.03 h 8 W/m 5.1 C 5.1 C
20.05.2005 06:00 6.0 C 99 % 1024.0 hPa 0.0 l/m 0.0 km/h (0 Bft) N 0.15 h 50 W/m 5.9 C 6.0 C
20.05.2005 07:00 7.6 C 95 % 1023.7 hPa 0.0 l/m 0.0 km/h (0 Bft) N 0.52 h 160 W/m 6.8 C 7.6 C
20.05.2005 08:00 9.3 C 84 % 1023.5 hPa 0.0 l/m 1.1 km/h (1 Bft) W-NW 1.00 h 398 W/m 6.7 C 9.2 C
20.05.2005 09:00 11.8 C 75 % 1023.2 hPa 0.0 l/m 0.8 km/h (0 Bft) W-NW 1.00 h 538 W/m 7.6 C 11.8 C
20.05.2005 10:00 15.3 C 66 % 1021.9 hPa 0.0 l/m 3.4 km/h (1 Bft) O-SO 1.00 h 671 W/m 8.9 C 15.3 C
20.05.2005 11:00 18.0 C 58 % 1021.3 hPa 0.0 l/m 4.9 km/h (1 Bft) O-SO 1.00 h 721 W/m 9.5 C 18.0 C
20.05.2005 12:00 20.4 C 50 % 1020.1 hPa 0.0 l/m 7.5 km/h (2 Bft) O-SO 1.02 h 827 W/m 9.7 C 20.4 C
20.05.2005 13:00 22.1 C 39 % 1019.0 hPa 0.0 l/m 5.5 km/h (1 Bft) SO 1.00 h 855 W/m 7.3 C 22.1 C
20.05.2005 14:00 24.2 C 37 % 1018.0 hPa 0.0 l/m 4.7 km/h (1 Bft) O-SO 1.00 h 818 W/m 8.6 C 24.2 C
20.05.2005 15:00 25.4 C 35 % 1016.9 hPa 0.0 l/m 7.6 km/h (2 Bft) O-SO 1.00 h 764 W/m 8.8 C 25.4 C
20.05.2005 16:00 26.4 C 32 % 1016.1 hPa 0.0 l/m 8.6 km/h (2 Bft) O-SO 1.00 h 677 W/m 8.2 C 26.4 C
20.05.2005 17:00 27.1 C 28 % 1015.6 hPa 0.0 l/m 1.5 km/h (1 Bft) O-SO 1.00 h 518 W/m 6.7 C 27.1 C
20.05.2005 18:00 26.6 C 28 % 1015.0 hPa 0.0 l/m 1.2 km/h (1 Bft) W-NW 1.00 h 297 W/m 6.1 C 26.6 C
20.05.2005 19:00 23.6 C 44 % 1015.4 hPa 0.0 l/m 2.3 km/h (1 Bft) O-SO 0.67 h 119 W/m 10.6 C 23.6 C
20.05.2005 20:00 21.1 C 49 % 1015.7 hPa 0.0 l/m 4.6 km/h (1 Bft) O-SO 0.13 h 32 W/m 9.9 C 21.1 C
20.05.2005 21:00 19.3 C 56 % 1015.9 hPa 0.0 l/m 0.1 km/h (0 Bft) N 0.00 h 0 W/m 10.2 C 19.3 C
20.05.2005 22:00 17.7 C 64 % 1016.1 hPa 0.0 l/m 3.7 km/h (1 Bft) O-SO 0.00 h 0 W/m 10.8 C 17.7 C
20.05.2005 23:00 17.8 C 64 % 1016.8 hPa 0.0 l/m 1.3 km/h (1 Bft) NW 0.00 h 0 W/m 10.8 C 17.8 C
21.05.2005 00:00 17.8 C 63 % 1017.7 hPa 0.0 l/m 0.4 km/h (0 Bft) N-NW 0.00 h 0 W/m 10.7 C 17.8 C
21.05.2005 01:00 16.1 C 76 % 1016.8 hPa 0.0 l/m 6.6 km/h (2 Bft) O-SO 0.00 h 0 W/m 12.0 C 16.1 C
21.05.2005 02:00 15.8 C 81 % 1017.7 hPa 0.0 l/m 5.5 km/h (1 Bft) W-NW 0.00 h 0 W/m 12.6 C 15.8 C
21.05.2005 03:00 14.8 C 93 % 1016.9 hPa 0.6 l/m 9.5 km/h (2 Bft) O-SO 0.00 h 0 W/m 13.6 C 14.8 C
21.05.2005 04:00 14.1 C 98 % 1016.7 hPa 0.0 l/m 2.1 km/h (1 Bft) O-SO 0.00 h 0 W/m 13.7 C 14.1 C
21.05.2005 05:00 14.1 C 100 % 1017.7 hPa 0.3 l/m 0.0 km/h (0 Bft) N 0.00 h 3 W/m 14.1 C 14.1 C
21.05.2005 06:00 13.9 C 100 % 1017.2 hPa 0.0 l/m 3.9 km/h (1 Bft) O-SO 0.00 h 14 W/m 13.9 C 13.9 C
21.05.2005 07:00 14.4 C 100 % 1017.6 hPa 0.3 l/m 0.5 km/h (0 Bft) NO 0.00 h 68 W/m 14.4 C 14.4 C
21.05.2005 08:00 15.0 C 97 % 1018.2 hPa 0.0 l/m 0.0 km/h (0 Bft) N 0.15 h 175 W/m 14.5 C 15.0 C
21.05.2005 09:00 16.8 C 87 % 1018.3 hPa 0.0 l/m 0.9 km/h (0 Bft) O-SO 0.25 h 279 W/m 14.5 C 16.8 C
21.05.2005 10:00 17.9 C 75 % 1017.5 hPa 0.0 l/m 0.9 km/h (0 Bft) W-NW 0.55 h 357 W/m 13.4 C 17.9 C
21.05.2005 11:00 17.8 C 78 % 1016.9 hPa 0.0 l/m 1.0 km/h (0 Bft) W-NW 0.05 h 246 W/m 13.9 C 17.8 C
21.05.2005 12:00 18.2 C 76 % 1016.1 hPa 0.0 l/m 2.0 km/h (1 Bft) W-NW 0.10 h 281 W/m 13.9 C 18.2 C
21.05.2005 13:00 18.7 C 75 % 1016.0 hPa 0.0 l/m 0.4 km/h (0 Bft) W-NW 0.00 h 302 W/m 14.1 C 18.7 C
21.05.2005 14:00 18.4 C 77 % 1015.4 hPa 0.0 l/m 0.7 km/h (0 Bft) W-NW 0.00 h 128 W/m 14.3 C 18.4 C
21.05.2005 15:00 17.8 C 87 % 1015.0 hPa 0.6 l/m 0.8 km/h (0 Bft) O-SO 0.00 h 121 W/m 15.6 C 17.8 C
21.05.2005 16:00 18.8 C 79 % 1013.7 hPa 0.0 l/m 0.2 km/h (0 Bft) NO 0.57 h 359 W/m 15.1 C 18.8 C
21.05.2005 17:00 19.2 C 74 % 1012.8 hPa 0.0 l/m 0.3 km/h (0 Bft) O 0.20 h 244 W/m 14.4 C 19.2 C
21.05.2005 18:00 18.8 C 75 % 1012.9 hPa 0.0 l/m 0.1 km/h (0 Bft) N 0.00 h 114 W/m 14.2 C 18.8 C
21.05.2005 19:00 18.0 C 81 % 1013.2 hPa 0.0 l/m 1.0 km/h (0 Bft) SO 0.00 h 23 W/m 14.6 C 18.0 C
21.05.2005 20:00 16.5 C 91 % 1013.9 hPa 0.3 l/m 3.5 km/h (1 Bft) O-SO 0.00 h 8 W/m 15.0 C 16.5 C
21.05.2005 21:00 15.6 C 97 % 1014.0 hPa 0.0 l/m 0.0 km/h (0 Bft) N 0.00 h 0 W/m 15.1 C 15.6 C
21.05.2005 22:00 15.4 C 99 % 1014.4 hPa 0.0 l/m 1.1 km/h (0 Bft) O-SO 0.00 h 0 W/m 15.2 C 15.4 C
21.05.2005 23:00 15.2 C 100 % 1014.4 hPa 1.0 l/m 7.3 km/h (2 Bft) O-SO 0.00 h 0 W/m 15.1 C 15.2 C
22.05.2005 00:00 15.3 C 100 % 1014.4 hPa 5.5 l/m 5.4 km/h (1 Bft) O-SO 0.00 h 0 W/m 15.3 C 15.3 C
22.05.2005 01:00 14.7 C 100 % 1014.5 hPa 0.0 l/m 2.7 km/h (1 Bft) O-SO 0.00 h 0 W/m 14.7 C 14.7 C
22.05.2005 02:00 14.3 C 100 % 1015.0 hPa 3.3 l/m 0.8 km/h (0 Bft) O 0.00 h 0 W/m 14.3 C 14.3 C
22.05.2005 03:00 13.4 C 100 % 1014.6 hPa 0.3 l/m 1.1 km/h (0 Bft) O-SO 0.00 h 0 W/m 13.4 C 13.4 C
22.05.2005 04:00 13.1 C 100 % 1015.1 hPa 0.0 l/m 2.8 km/h (1 Bft) SO 0.00 h 0 W/m 13.1 C 13.1 C
22.05.2005 05:00 13.0 C 100 % 1014.7 hPa 0.6 l/m 0.5 km/h (0 Bft) SO 0.00 h 2 W/m 13.0 C 13.0 C
22.05.2005 06:00 12.8 C 100 % 1014.7 hPa 1.0 l/m 4.7 km/h (1 Bft) SO 0.00 h 18 W/m 12.8 C 12.8 C
22.05.2005 07:00 12.8 C 98 % 1015.3 hPa 0.0 l/m 4.5 km/h (1 Bft) O-SO 0.00 h 93 W/m 12.5 C 12.8 C
22.05.2005 08:00 13.2 C 97 % 1015.7 hPa 0.0 l/m 0.9 km/h (0 Bft) O-SO 0.00 h 96 W/m 12.7 C 13.2 C
22.05.2005 09:00 13.1 C 97 % 1015.8 hPa 0.3 l/m 0.1 km/h (0 Bft) N 0.00 h 107 W/m 12.6 C 13.1 C
22.05.2005 10:00 13.5 C 95 % 1015.7 hPa 0.3 l/m 0.8 km/h (0 Bft) O-SO 0.10 h 254 W/m 12.7 C 13.5 C
22.05.2005 11:00 14.6 C 91 % 1014.7 hPa 0.3 l/m 2.3 km/h (1 Bft) SO 0.33 h 400 W/m 13.2 C 14.6 C
22.05.2005 12:00 15.6 C 87 % 1014.3 hPa 0.0 l/m 0.5 km/h (0 Bft) W-NW 0.60 h 508 W/m 13.4 C 15.6 C
22.05.2005 13:00 17.4 C 78 % 1013.1 hPa 0.0 l/m 2.8 km/h (1 Bft) W-NW 0.87 h 859 W/m 13.5 C 17.4 C
22.05.2005 14:00 18.9 C 64 % 1012.9 hPa 0.0 l/m 3.3 km/h (1 Bft) W-NW 1.00 h 897 W/m 12.0 C 18.9 C
22.05.2005 15:00 20.0 C 63 % 1012.0 hPa 0.0 l/m 1.3 km/h (1 Bft) O-SO 0.63 h 545 W/m 12.8 C 20.0 C
22.05.2005 16:00 18.9 C 73 % 1011.8 hPa 0.0 l/m 2.4 km/h (1 Bft) O-SO 0.33 h 293 W/m 13.9 C 18.9 C
22.05.2005 17:00 19.0 C 71 % 1011.8 hPa 0.0 l/m 1.9 km/h (1 Bft) O-SO 0.18 h 194 W/m 13.6 C 19.0 C
22.05.2005 18:00 16.6 C 70 % 1012.8 hPa 0.0 l/m 27.5 km/h (4 Bft) NW 0.00 h 29 W/m 11.1 C 16.6 C
22.05.2005 19:00 15.0 C 74 % 1014.1 hPa 0.3 l/m 19.9 km/h (4 Bft) NW 0.00 h 22 W/m 10.5 C 15.0 C
22.05.2005 20:00 12.7 C 91 % 1015.7 hPa 3.3 l/m 1.8 km/h (1 Bft) W-NW 0.00 h 4 W/m 11.3 C 12.7 C
22.05.2005 21:00 11.9 C 99 % 1015.2 hPa 0.6 l/m 3.4 km/h (1 Bft) O-SO 0.00 h 0 W/m 11.8 C 11.9 C
22.05.2005 22:00 11.8 C 100 % 1016.2 hPa 0.3 l/m 3.8 km/h (1 Bft) O-SO 0.00 h 0 W/m 11.8 C 11.8 C
22.05.2005 23:00 11.7 C 100 % 1016.3 hPa 1.0 l/m 0.3 km/h (0 Bft) O-SO 0.00 h 0 W/m 11.7 C 11.7 C
Min-Datum _ 19.05.05 20.05.05 17.05.05 - 16.05.05 - - - 20.05.05 19.05.05
_ Min-Zeit 04:54 17:11 17:07 - 00:01 - - - 18:19 04:54
Minimum _ 3.5 C 20 % 1008.5 hPa - 0.0 km/h (0 Bft) - - - 1.8 C 3.5 C
Max-Datum _ 20.05.05 16.05.05 19.05.05 22.05.05 22.05.05 - 16.05.05 22.05.05 21.05.05 20.05.05
_ Max-Zeit 18:01 01:35 04:26 00:11 18:22 - 10:33 12:17 15:51 18:01
Maximum _ 27.3 C 100 % 1025.3 hPa 5.5 l/m 37.6 km/h
NW (5 Bft)
- 0.05 h 1006 W/m 16.7 C 27.3 C
Durchschnitt _ 13.2 C 81 % 1016.7 hPa #34.5 l/m 2.6 km/h (1 Bft) O-SO #44:35 h 299 W/m 9.3 C 13.2 C

Durchschnitt Minimum Temp.12.7 C
Durchschnitt Maximum Temp.13.8 C
© Kaiko 2005